Epic Caledonia — 9V2516 — position and weather

sailwx.info

Track history (hours):
 
Tides and Currents Weather Stations Pressure Air Temp Water Temp Dewpoint Dewpoint Depression Visibility Wind Speed Wind Dir Waves Ship Positions

Epic Caledonia

Last reported at 2017-Dec-11 17:00 UTC. Time now 2017-Dec-13 17:01 UTC.
Position N 18°19' W 064°59'.

Length 94 m; draft 5.4 m.

Type: Tanker. MMSI: 564923000.

Date/timePositionNaut miles runAvg speedWind from/ knotsBaromVisibWave heightAir tempDewpointWater temp
2017-Dec-11 17:00N 18°19' W 064°59'0 0.0
2017-Dec-11 16:30N 18°19' W 064°59'0 0.0
2017-Dec-11 16:00N 18°19' W 064°59'0 0.0
2017-Dec-11 15:30N 18°19' W 064°59'0 0.1
2017-Dec-11 15:01N 18°19' W 064°59'0 0.0
2017-Dec-11 14:30N 18°19' W 064°59'0 0.0
2017-Dec-11 14:00N 18°19' W 064°59'0 0.0
2017-Dec-11 13:29N 18°19' W 064°59'0 0.0
2017-Dec-11 13:00N 18°19' W 064°59'0 0.0
2017-Dec-11 12:30N 18°19' W 064°59'0 0.0
2017-Dec-11 12:00N 18°19' W 064°59'0 0.0
2017-Dec-11 11:30N 18°19' W 064°59'0 0.0
2017-Dec-11 11:00N 18°19' W 064°59'0 0.1
2017-Dec-11 10:30N 18°19' W 064°59'0 0.0
2017-Dec-11 10:00N 18°19' W 064°59'0 0.0
2017-Dec-11 09:30N 18°19' W 064°59'0 0.4
2017-Dec-11 09:00N 18°19' W 064°59'3 5.6
2017-Dec-11 08:30N 18°16' W 064°59'5 9.4
2017-Dec-11 08:01N 18°12' W 065°02'611.2
2017-Dec-11 07:30N 18°07' W 065°05'611.5
2017-Dec-11 07:00N 18°03' W 065°09'611.2
2017-Dec-11 06:30N 17°58' W 065°12'  
2017-Dec-08 07:37N 11°28' W 074°47'1 6.7
2017-Dec-08 07:27N 11°27' W 074°48'3 6.3
2017-Dec-08 06:59N 11°25' W 074°51'9 7.0
2017-Dec-08 05:42N 11°20' W 074°59'1 6.2
2017-Dec-08 05:29N 11°20' W 074°60'86 8.8
2017-Dec-07 19:44N 10°16' W 075°59'412.3
2017-Dec-07 19:26N 10°17' W 075°56'512.1
2017-Dec-07 19:00N 10°17' W 075°50'611.7
2017-Dec-07 18:30N 10°17' W 075°44'611.9
2017-Dec-07 18:00N 10°19' W 075°39'5 9.4
2017-Dec-07 17:30N 10°19' W 075°34'3 6.6
2017-Dec-07 17:00N 10°18' W 075°31'0 0.1
2017-Dec-07 16:30N 10°18' W 075°30'  
2017-Dec-02 14:05N 18°02' W 065°08'213.4
2017-Dec-02 13:56N 18°04' W 065°06'613.5
2017-Dec-02 13:30N 18°09' W 065°02'612.5
2017-Dec-02 13:00N 18°13' W 064°58'1 2.1
2017-Dec-02 12:28N 18°14' W 064°57'1 0.6
2017-Dec-02 10:24N 18°15' W 064°59'0 0.1
2017-Dec-02 10:00N 18°15' W 064°59'0 0.0
2017-Dec-02 09:24N 18°15' W 064°59'0 0.1
2017-Dec-02 08:57N 18°15' W 064°59'0 0.0
2017-Dec-02 08:30N 18°15' W 064°59'0 0.1
2017-Dec-02 07:18N 18°15' W 064°59'0 0.0
2017-Dec-02 07:00N 18°15' W 064°59'0 0.0
2017-Dec-02 06:18N 18°15' W 064°59'0 0.1
2017-Dec-02 06:00N 18°15' W 064°59'0 0.0
2017-Dec-02 05:30N 18°15' W 064°59'0 0.0
2017-Dec-02 04:57N 18°15' W 064°59'0 0.0
2017-Dec-02 04:30N 18°15' W 064°59'0 0.0
2017-Dec-02 04:00N 18°15' W 064°59'0 0.0
2017-Dec-02 02:57N 18°15' W 064°59'0 0.1
2017-Dec-02 02:27N 18°15' W 064°59'0 0.0
2017-Dec-01 22:51N 18°15' W 064°59'0 0.0
2017-Dec-01 22:30N 18°15' W 064°59'0 0.1
2017-Dec-01 22:00N 18°15' W 064°59'1 1.4
2017-Dec-01 21:30N 18°14' W 064°59'2 3.8
2017-Dec-01 21:00N 18°16' W 064°60'2 3.3
2017-Dec-01 20:30N 18°18' W 064°59'2 3.5
2017-Dec-01 20:00N 18°16' W 064°58'2 1.2
2017-Dec-01 18:46N 18°15' W 064°59'0 0.0
2017-Dec-01 18:28N 18°15' W 064°59'0 0.0
2017-Dec-01 17:58N 18°15' W 064°59'0 0.0
2017-Dec-01 17:30N 18°15' W 064°59'  
Track history (hours):
 
Tides and Currents Weather Stations Pressure Air Temp Water Temp Dewpoint Dewpoint Depression Visibility Wind Speed Wind Dir Waves Ship Positions

Epic Caledonia

Last reported at 2017-Dec-11 17:00 UTC. Time now 2017-Dec-13 17:01 UTC.
Position N 18°19' W 064°59'.

Length 94 m; draft 5.4 m.

Type: Tanker. MMSI: 564923000.

Date/timePositionNaut miles runAvg speedWind from/ knotsBaromVisibWave heightAir tempDewpointWater temp
2017-Dec-11 17:00N 18°19' W 064°59'0 0.0
2017-Dec-11 16:30N 18°19' W 064°59'0 0.0
2017-Dec-11 16:00N 18°19' W 064°59'0 0.0
2017-Dec-11 15:30N 18°19' W 064°59'0 0.1
2017-Dec-11 15:01N 18°19' W 064°59'0 0.0
2017-Dec-11 14:30N 18°19' W 064°59'0 0.0
2017-Dec-11 14:00N 18°19' W 064°59'0 0.0
2017-Dec-11 13:29N 18°19' W 064°59'0 0.0
2017-Dec-11 13:00N 18°19' W 064°59'0 0.0
2017-Dec-11 12:30N 18°19' W 064°59'0 0.0
2017-Dec-11 12:00N 18°19' W 064°59'0 0.0
2017-Dec-11 11:30N 18°19' W 064°59'0 0.0
2017-Dec-11 11:00N 18°19' W 064°59'0 0.1
2017-Dec-11 10:30N 18°19' W 064°59'0 0.0
2017-Dec-11 10:00N 18°19' W 064°59'0 0.0
2017-Dec-11 09:30N 18°19' W 064°59'0 0.4
2017-Dec-11 09:00N 18°19' W 064°59'3 5.6
2017-Dec-11 08:30N 18°16' W 064°59'5 9.4
2017-Dec-11 08:01N 18°12' W 065°02'611.2
2017-Dec-11 07:30N 18°07' W 065°05'611.5
2017-Dec-11 07:00N 18°03' W 065°09'611.2
2017-Dec-11 06:30N 17°58' W 065°12'  
2017-Dec-08 07:37N 11°28' W 074°47'1 6.7
2017-Dec-08 07:27N 11°27' W 074°48'3 6.3
2017-Dec-08 06:59N 11°25' W 074°51'9 7.0
2017-Dec-08 05:42N 11°20' W 074°59'1 6.2
2017-Dec-08 05:29N 11°20' W 074°60'86 8.8
2017-Dec-07 19:44N 10°16' W 075°59'412.3
2017-Dec-07 19:26N 10°17' W 075°56'512.1
2017-Dec-07 19:00N 10°17' W 075°50'611.7
2017-Dec-07 18:30N 10°17' W 075°44'611.9
2017-Dec-07 18:00N 10°19' W 075°39'5 9.4
2017-Dec-07 17:30N 10°19' W 075°34'3 6.6
2017-Dec-07 17:00N 10°18' W 075°31'0 0.1
2017-Dec-07 16:30N 10°18' W 075°30'  
2017-Dec-02 14:05N 18°02' W 065°08'213.4
2017-Dec-02 13:56N 18°04' W 065°06'613.5
2017-Dec-02 13:30N 18°09' W 065°02'612.5
2017-Dec-02 13:00N 18°13' W 064°58'1 2.1
2017-Dec-02 12:28N 18°14' W 064°57'1 0.6
2017-Dec-02 10:24N 18°15' W 064°59'0 0.1
2017-Dec-02 10:00N 18°15' W 064°59'0 0.0
2017-Dec-02 09:24N 18°15' W 064°59'0 0.1
2017-Dec-02 08:57N 18°15' W 064°59'0 0.0
2017-Dec-02 08:30N 18°15' W 064°59'0 0.1
2017-Dec-02 07:18N 18°15' W 064°59'0 0.0
2017-Dec-02 07:00N 18°15' W 064°59'0 0.0
2017-Dec-02 06:18N 18°15' W 064°59'0 0.1
2017-Dec-02 06:00N 18°15' W 064°59'0 0.0
2017-Dec-02 05:30N 18°15' W 064°59'0 0.0
2017-Dec-02 04:57N 18°15' W 064°59'0 0.0
2017-Dec-02 04:30N 18°15' W 064°59'0 0.0
2017-Dec-02 04:00N 18°15' W 064°59'0 0.0
2017-Dec-02 02:57N 18°15' W 064°59'0 0.1
2017-Dec-02 02:27N 18°15' W 064°59'0 0.0
2017-Dec-01 22:51N 18°15' W 064°59'0 0.0
2017-Dec-01 22:30N 18°15' W 064°59'0 0.1
2017-Dec-01 22:00N 18°15' W 064°59'1 1.4
2017-Dec-01 21:30N 18°14' W 064°59'2 3.8
2017-Dec-01 21:00N 18°16' W 064°60'2 3.3
2017-Dec-01 20:30N 18°18' W 064°59'2 3.5
2017-Dec-01 20:00N 18°16' W 064°58'2 1.2
2017-Dec-01 18:46N 18°15' W 064°59'0 0.0
2017-Dec-01 18:28N 18°15' W 064°59'0 0.0
2017-Dec-01 17:58N 18°15' W 064°59'0 0.0
2017-Dec-01 17:30N 18°15' W 064°59'  

Dump ship's entire track history